Centennial, WY

1:14 AM MDT on September 21, 2014 (GMT -0600)
Aspen Country | Change Station
CLOSE
Current Station
Personal Weather Station
Location: Centennial, WY
Elevation: 8050 ft
Nearby Weather Stations

Elev 8050 ft 41.29 °N, 106.15 °W | Updated 3 minutes ago

Clear
Clear
44.5 °F
Feels Like 44 °F
N
0.0
Wind Variable Wind from WNW
Gusts 0.0 mph

Today
High -- | Low -- °F
--% Chance of Precip.
Yesterday
High -- | Low -- °F
Precip. -- in
6:51 AM 7:03 PM
Waning Crescent, 8% visible
Pressure 30.13 in
Visibility 10.0 miles
Clouds Clear
Windchill 44 °F
Dew Point 39 °F
Humidity 80%
Rainfall 0.00 in
Snow Depth Not available.
UV 0 out of 12
Pollen 5.60 out of 12
Air Quality Not available.
Flu Activity Not available.
METAR KLAR 210653Z AUTO 17005KT 10SM CLR 09/02 A3042 RMK AO2 SLP203 T00940017 402390033

More Conditions Fewer Conditions

Pressure 30.13 in
Visibility 10.0 miles
Clouds Clear
Windchill 44 °F
Dew Point 39 °F
Humidity 80%
Rainfall 0.00 in
Snow Depth Not available.
UV 0 out of 12
Pollen 5.60 out of 12
Air Quality Not available.
Flu Activity Not available.
METAR KLAR 210653Z AUTO 17005KT 10SM CLR 09/02 A3042 RMK AO2 SLP203 T00940017 402390033

More Conditions Fewer Conditions

10-Day Weather Forecast

Almanac

Astronomy

Sep. 21, 2014 Rise Set
Actual Time 6:51 AM MDT 7:03 PM MDT
Civil Twilight 6:23 AM MDT 7:30 PM MDT
Nautical Twilight 5:51 AM MDT 8:03 PM MDT
Astronomical Twilight 5:18 AM MDT 8:36 PM MDT
Moon 4:26 AM MDT 5:41 PM MDT
Length of Visible Light 13h 07m
Length of Day
12h 12m
Tomorrow will be 2m 44s shorter.
Waning Crescent, 8% of the Moon is Illuminated
Today
Waning Crescent
Sep 24
New
Oct 1
First Quarter
Oct 8
Full
Oct 15
Last Quarter

Community

WunderPhotos

Upload Photos

1,755,101 photos uploaded!

Nearby

Snow Depth

Station Depth Elevation
Lewis Lake Divide 0 in 7850 ft
Willow Creek 0 in 8450 ft
Phillips Bench 0 in 8200 ft
Reno Hill 0 in 8500 ft
Casper Mountain 0 in 7850 ft

Earthquake Activity

City Distance Mag. Time & Date
No recent earthquake activity has been reported nearby.
Minimum magnitude displayed is 2.5.

Coastal Water Temperatures

Place Temperature
No Stations Reporting

Nearby Weather Stations